aviador You're here:

VVDN Decoded Metar

DANANG in VIET NAM
Report Time2018-01-24 11:00:00
UTC Time2018-01-24 11:34:33
Flight Rules mvfr MVFR
Wind090° at 03 kt
W.Decomp.*RWY 17: 0.5 kt HW 3 kt LCW
W.Rank090° ranks 12
Current wind is below 090° avg. (6.4)
Visibility6000 m
Phenomena:Light Rain
Clouds:Scattered 010 Hf
Broken 050 Hf
Expected CloudBase > 800 ft AGL from Temp-Dew spread
Ceiling5,000 ft
Temp24°C (ISA +9)
Dew Point22°C (89% RH)
QNH1010 hPa
Density Alt1,522 ft
Elevation23 ft
Report Wrong Elevation
Raw Report
VVDN 241100Z 09003KT 6000 -RA SCT010 BKN050 24/22 Q1010 TEMPO 4000
-RA BR=

Extra information for VVDN:More info

Metar Taf Metar & Taf Last 4 Metars F.Rules Stats Wind Profile Meteogram Temp Stats Airport Information Weather charts Add Link Nearby VenuesMetar ALERT Operation Metar Decoded Social comments